Time;durP1;ratioP1;P1;durP2;ratioP2;P2;SDS_P1;SDS_P2;PMS_P1;PMS_P2;Temp;Humidity;BMP_temperature;BMP_pressure;BME280_temperature;BME280_humidity;BME280_pressure;Samples;Min_cycle;Max_cycle;Signal;HPM_P1;HPM_P2
2023/06/03 00:00:49;;;;;;;2.40;2.20;;;;;;;8.91;100.00;102475.25;5031279;28;20981;-44
2023/06/03 00:03:17;;;;;;;3.40;2.70;;;;;;;8.86;100.00;102466.88;5031476;28;20431;-45
2023/06/03 00:05:47;;;;;;;3.00;2.80;;;;;;;8.83;100.00;102464.50;5031604;28;20440;-47
2023/06/03 00:08:15;;;;;;;2.50;2.30;;;;;;;8.78;100.00;102464.91;5031911;28;20502;-47
2023/06/03 00:10:43;;;;;;;5.23;2.47;;;;;;;8.75;100.00;102475.81;5031101;28;20491;-44
2023/06/03 00:13:10;;;;;;;2.60;2.50;;;;;;;8.73;100.00;102471.63;5031417;28;20431;-47
2023/06/03 00:15:38;;;;;;;2.43;2.23;;;;;;;8.71;100.00;102481.59;5031377;28;20455;-47
2023/06/03 00:18:07;;;;;;;2.87;2.50;;;;;;;8.67;100.00;102482.84;5031676;28;20916;-46
2023/06/03 00:20:36;;;;;;;3.63;2.40;;;;;;;8.66;100.00;102486.50;5031064;28;21009;-45
2023/06/03 00:23:05;;;;;;;5.00;2.30;;;;;;;8.63;100.00;102498.25;5031438;28;20435;-47
2023/06/03 00:25:34;;;;;;;2.43;2.33;;;;;;;8.60;100.00;102495.84;5031509;28;20432;-49
2023/06/03 00:28:02;;;;;;;3.70;3.10;;;;;;;8.60;100.00;102493.19;5020657;28;20453;-45
2023/06/03 00:30:31;;;;;;;2.10;2.00;;;;;;;8.60;100.00;102484.41;5030820;28;20460;-43
2023/06/03 00:32:59;;;;;;;3.17;2.67;;;;;;;8.57;100.00;102482.03;5031230;28;20435;-45
2023/06/03 00:35:27;;;;;;;3.30;2.20;;;;;;;8.54;100.00;102480.47;5030500;28;20436;-44
2023/06/03 00:37:55;;;;;;;2.43;2.33;;;;;;;8.53;100.00;102493.91;5031253;28;20452;-44
2023/06/03 00:40:25;;;;;;;3.53;2.67;;;;;;;8.52;100.00;102493.06;5030691;28;20842;-45
2023/06/03 00:42:52;;;;;;;2.37;2.10;;;;;;;8.50;100.00;102494.19;5025145;28;20433;-46
2023/06/03 00:45:20;;;;;;;2.83;2.63;;;;;;;8.45;100.00;102486.66;5029559;28;20436;-46
2023/06/03 00:47:48;;;;;;;2.50;2.40;;;;;;;8.43;100.00;102495.72;5031210;28;20452;-46
2023/06/03 00:50:16;;;;;;;2.40;2.20;;;;;;;8.40;100.00;102493.34;5030772;28;20539;-44
2023/06/03 00:52:44;;;;;;;2.80;2.60;;;;;;;8.38;100.00;102490.84;5030748;28;20437;-45
2023/06/03 00:55:12;;;;;;;2.57;2.37;;;;;;;8.35;100.00;102488.47;5031013;28;20519;-45
2023/06/03 00:57:41;;;;;;;2.20;2.10;;;;;;;8.32;100.00;102489.59;5030882;28;20511;-42
2023/06/03 01:00:09;;;;;;;3.10;2.73;;;;;;;8.29;100.00;102494.34;5030729;28;20471;-46
2023/06/03 01:02:38;;;;;;;2.50;2.30;;;;;;;8.25;100.00;102485.78;5030788;28;20521;-44
2023/06/03 01:05:07;;;;;;;3.10;2.90;;;;;;;8.22;100.00;102490.50;5030989;28;20436;-44
2023/06/03 01:07:42;;;;;;;2.60;2.40;;;;;;;8.19;100.00;102493.44;5030756;28;20509;-44
2023/06/03 01:10:16;;;;;;;2.53;2.33;;;;;;;8.17;100.00;102490.09;5030587;28;20996;-45
2023/06/03 01:12:52;;;;;;;3.33;2.37;;;;;;;8.18;100.00;102491.78;5030880;28;20498;-43
2023/06/03 01:15:23;;;;;;;2.40;2.30;;;;;;;8.18;100.00;102491.78;5030941;28;20944;-42
2023/06/03 01:17:52;;;;;;;2.60;2.43;;;;;;;8.16;100.00;102496.38;5030763;28;20459;-45
2023/06/03 01:20:26;;;;;;;3.00;2.80;;;;;;;8.14;100.00;102493.03;5030077;28;20475;-45
2023/06/03 01:23:03;;;;;;;3.37;2.80;;;;;;;8.12;100.00;102493.16;5030783;28;20427;-43
2023/06/03 01:25:32;;;;;;;3.03;2.80;;;;;;;8.12;100.00;102487.84;5030601;28;20435;-44
2023/06/03 01:28:00;;;;;;;3.27;2.97;;;;;;;8.11;100.00;102498.63;5019660;28;20507;-42
2023/06/03 01:30:28;;;;;;;3.00;2.90;;;;;;;8.09;100.00;102495.28;5023008;28;21012;-45
2023/06/03 01:32:56;;;;;;;2.80;2.60;;;;;;;8.07;100.00;102499.88;5030293;28;20463;-44
2023/06/03 01:35:25;;;;;;;4.23;3.13;;;;;;;8.05;100.00;102502.69;5030657;28;20794;-44
2023/06/03 01:37:53;;;;;;;3.50;2.73;;;;;;;8.03;100.00;102498.47;5030980;28;20455;-45
2023/06/03 01:40:21;;;;;;;3.50;2.70;;;;;;;7.99;100.00;102500.56;5030143;28;20465;-44
2023/06/03 01:42:50;;;;;;;3.10;2.90;;;;;;;7.97;100.00;102499.03;5024840;28;20480;-45
2023/06/03 01:45:18;;;;;;;3.30;3.00;;;;;;;7.95;100.00;102500.97;5028594;28;20510;-44
2023/06/03 01:47:47;;;;;;;4.00;2.60;;;;;;;7.91;100.00;102502.22;5033702;28;20866;-47
2023/06/03 01:50:17;;;;;;;3.70;3.47;;;;;;;7.91;100.00;102500.41;5033989;28;20854;-46
2023/06/03 01:52:45;;;;;;;2.80;2.70;;;;;;;7.90;100.00;102508.50;5034088;28;20485;-48
2023/06/03 01:55:13;;;;;;;3.20;2.90;;;;;;;7.86;100.00;102507.94;5034120;28;20435;-42
2023/06/03 01:57:41;;;;;;;3.50;2.70;;;;;;;7.85;100.00;102511.59;5033946;28;20455;-45
2023/06/03 02:00:11;;;;;;;2.37;2.27;;;;;;;7.82;100.00;102511.88;5033824;28;20463;-44
2023/06/03 02:02:38;;;;;;;2.77;2.67;;;;;;;7.82;100.00;102516.31;5033866;28;20504;-44
2023/06/03 02:05:07;;;;;;;6.90;2.73;;;;;;;7.78;100.00;102511.28;5033883;28;20440;-44
2023/06/03 02:07:35;;;;;;;3.90;3.47;;;;;;;7.76;100.00;102509.75;5033982;28;20458;-45
2023/06/03 02:10:02;;;;;;;3.53;3.23;;;;;;;7.75;100.00;102513.38;5033527;28;20483;-44
2023/06/03 02:12:30;;;;;;;3.53;3.23;;;;;;;7.73;100.00;102512.66;5033512;28;20460;-44
2023/06/03 02:14:58;;;;;;;3.87;2.67;;;;;;;7.72;100.00;102513.63;5033945;28;20790;-45
2023/06/03 02:17:28;;;;;;;2.90;2.70;;;;;;;7.69;100.00;102514.75;5033554;28;20459;-44
2023/06/03 02:19:57;;;;;;;5.10;3.63;;;;;;;7.67;100.00;102515.88;5033497;28;20503;-43
2023/06/03 02:22:25;;;;;;;2.83;2.73;;;;;;;7.64;100.00;102510.81;5033092;28;20468;-46
2023/06/03 02:24:57;;;;;;;3.30;2.80;;;;;;;7.65;100.00;102518.63;5033364;28;21061;-43
2023/06/03 02:27:25;;;;;;;3.27;3.07;;;;;;;7.63;100.00;102515.28;5027274;28;20502;-43
2023/06/03 02:29:53;;;;;;;2.50;2.40;;;;;;;7.62;100.00;102510.94;5029296;28;20865;-44
2023/06/03 02:32:21;;;;;;;4.90;3.43;;;;;;;7.60;100.00;102517.38;5033220;28;20483;-45
2023/06/03 02:34:51;;;;;;;5.43;2.77;;;;;;;7.57;100.00;102520.28;5033211;28;21015;-44
2023/06/03 02:37:19;;;;;;;4.47;4.07;;;;;;;7.56;100.00;102513.28;5033116;28;20857;-43
2023/06/03 02:39:47;;;;;;;4.40;3.90;;;;;;;7.56;100.00;102521.25;5033290;28;20468;-44
2023/06/03 02:42:15;;;;;;;3.20;3.10;;;;;;;7.56;100.00;102521.25;5031894;28;20479;-45
2023/06/03 02:44:42;;;;;;;2.93;2.73;;;;;;;7.58;100.00;102521.97;5026725;28;20837;-48
2023/06/03 02:47:10;;;;;;;3.30;2.63;;;;;;;7.57;100.00;102518.47;5033058;28;20455;-47
2023/06/03 02:49:38;;;;;;;5.60;3.40;;;;;;;7.55;100.00;102520.44;5032851;28;20463;-43
2023/06/03 02:52:08;;;;;;;3.20;3.00;;;;;;;7.55;100.00;102524.91;5032619;28;20776;-45
2023/06/03 02:54:35;;;;;;;3.13;2.93;;;;;;;7.57;100.00;102525.59;5033000;28;20471;-44
2023/06/03 02:57:03;;;;;;;3.93;3.40;;;;;;;7.58;100.00;102516.66;5033203;28;20510;-46
2023/06/03 02:59:31;;;;;;;3.23;3.03;;;;;;;7.61;100.00;102521.72;5032167;28;20496;-43
2023/06/03 03:01:59;;;;;;;3.37;3.10;;;;;;;7.62;100.00;102531.34;5032373;28;20526;-43
2023/06/03 03:04:27;;;;;;;4.03;3.73;;;;;;;7.65;100.00;102528.41;5032648;28;20494;-47
2023/06/03 03:06:57;;;;;;;3.63;3.40;;;;;;;7.69;100.00;102527.19;5032942;28;20459;-44
2023/06/03 03:09:26;;;;;;;3.00;2.80;;;;;;;7.72;100.00;102530.41;5032449;28;20586;-43
2023/06/03 03:11:54;;;;;;;3.77;3.47;;;;;;;7.77;100.00;102530.00;5032221;28;20441;-43
2023/06/03 03:14:21;;;;;;;3.23;3.03;;;;;;;7.79;100.00;102528.06;5032608;28;20466;-48
2023/06/03 03:16:49;;;;;;;3.70;3.50;;;;;;;7.83;100.00;102526.78;5032460;28;20483;-45
2023/06/03 03:19:17;;;;;;;3.83;3.20;;;;;;;7.91;100.00;102531.44;5029570;28;20500;-41
2023/06/03 03:21:44;;;;;;;4.00;3.70;;;;;;;7.96;100.00;102527.41;5032311;28;20518;-43
2023/06/03 03:24:13;;;;;;;4.00;3.70;;;;;;;8.23;100.00;102519.63;5032630;28;20436;-44
2023/06/03 03:26:42;;;;;;;4.17;3.87;;;;;;;8.78;100.00;102523.44;5030224;28;20460;-43
2023/06/03 03:29:10;;;;;;;4.50;3.50;;;;;;;8.87;100.00;102527.06;5024486;28;20428;-44
2023/06/03 03:31:38;;;;;;;2.83;2.63;;;;;;;8.88;100.00;102512.78;5031991;28;20456;-46
2023/06/03 03:34:07;;;;;;;3.43;3.30;;;;;;;8.92;100.00;102518.66;5032177;28;20467;-44
2023/06/03 03:36:36;;;;;;;3.80;3.50;;;;;;;8.94;100.00;102511.38;5032197;28;20527;-43
2023/06/03 03:39:05;;;;;;;3.57;3.37;;;;;;;8.96;100.00;102509.41;5032233;28;20462;-45
2023/06/03 03:41:33;;;;;;;3.10;2.73;;;;;;;9.01;100.00;102512.47;5031614;28;20482;-50
2023/06/03 03:44:03;;;;;;;3.20;2.60;;;;;;;9.05;100.00;102509.38;5024147;28;20482;-46
2023/06/03 03:46:31;;;;;;;3.33;3.03;;;;;;;9.12;100.00;102510.50;5031890;28;20459;-46
2023/06/03 03:49:00;;;;;;;3.70;3.40;;;;;;;9.21;100.00;102514.09;5028425;28;20436;-49
2023/06/03 03:51:29;;;;;;;3.50;3.30;;;;;;;9.29;100.00;102512.38;5031619;28;20433;-45
2023/06/03 03:53:57;;;;;;;3.23;3.00;;;;;;;9.36;100.00;102513.50;5031577;28;20822;-44
2023/06/03 03:56:25;;;;;;;3.23;3.03;;;;;;;9.44;100.00;102516.25;5031774;28;20463;-42
2023/06/03 03:58:55;;;;;;;3.47;3.17;;;;;;;9.52;100.00;102512.88;5031733;28;20436;-43
2023/06/03 04:01:25;;;;;;;3.27;3.07;;;;;;;9.56;100.00;102508.91;5030583;28;20464;-44
2023/06/03 04:03:55;;;;;;;2.93;2.73;;;;;;;9.69;100.00;102511.25;5031031;28;21000;-42
2023/06/03 04:06:36;;;;;;;3.30;3.10;;;;;;;9.83;100.00;102513.41;5030886;28;20456;-47
2023/06/03 04:09:05;;;;;;;3.53;3.23;;;;;;;9.91;100.00;102517.03;5030882;28;21008;-45
2023/06/03 04:11:37;;;;;;;3.87;3.57;;;;;;;10.03;100.00;102517.66;5030016;28;20434;-44
2023/06/03 04:14:08;;;;;;;2.80;2.60;;;;;;;10.17;100.00;102511.84;5031217;28;20431;-47
2023/06/03 04:16:56;;;;;;;3.93;3.20;;;;;;;10.31;100.00;102513.97;5030852;28;20571;-44
2023/06/03 04:19:30;;;;;;;3.77;3.47;;;;;;;10.49;100.00;102509.50;5030901;28;20997;-44
2023/06/03 04:21:59;;;;;;;3.47;3.20;;;;;;;10.71;100.00;102508.19;5031148;28;20428;-46
2023/06/03 04:24:27;;;;;;;4.10;3.90;;;;;;;11.04;100.00;102506.59;5030726;28;20459;-43
2023/06/03 04:26:55;;;;;;;3.90;3.63;;;;;;;12.36;100.00;102514.84;5026903;28;20850;-49
2023/06/03 04:29:23;;;;;;;3.63;3.40;;;;;;;14.09;100.00;102514.16;5021166;28;20463;-46
2023/06/03 04:31:51;;;;;;;3.60;3.40;;;;;;;15.71;100.00;102511.69;5030751;28;20428;-45
2023/06/03 04:34:20;;;;;;;3.47;3.20;;;;;;;17.13;100.00;102507.13;5030894;28;20443;-44
2023/06/03 04:36:48;;;;;;;3.67;3.20;;;;;;;18.33;100.00;102491.28;5030476;28;20460;-47
2023/06/03 04:39:17;;;;;;;3.17;2.97;;;;;;;19.47;100.00;102490.03;5030761;28;20440;-44
2023/06/03 04:41:45;;;;;;;3.10;2.57;;;;;;;20.49;100.00;102486.38;5030505;28;20432;-43
2023/06/03 04:44:13;;;;;;;7.17;3.10;;;;;;;21.39;100.00;102485.75;5030556;28;20503;-41
2023/06/03 04:46:45;;;;;;;3.70;3.50;;;;;;;22.33;98.26;102483.28;5030262;28;21278;-44
2023/06/03 04:49:14;;;;;;;3.90;3.70;;;;;;;23.04;83.07;102477.72;5030910;28;20431;-47
2023/06/03 04:51:44;;;;;;;3.30;3.10;;;;;;;23.74;80.82;102487.69;5030739;28;20440;-45
2023/06/03 04:54:12;;;;;;;2.80;2.60;;;;;;;24.55;64.59;102481.88;5031046;28;20801;-43
2023/06/03 04:56:40;;;;;;;2.67;2.57;;;;;;;25.15;62.89;102488.25;5030881;28;20485;-45
2023/06/03 04:59:07;;;;;;;3.00;2.70;;;;;;;25.64;61.18;102475.56;5030640;28;20483;-48
2023/06/03 05:01:36;;;;;;;3.53;2.50;;;;;;;25.91;55.96;102482.97;5030368;28;21007;-47
2023/06/03 05:04:08;;;;;;;2.73;2.53;;;;;;;26.08;50.63;102473.59;5030995;28;20579;-47
2023/06/03 05:06:36;;;;;;;2.57;2.47;;;;;;;26.10;48.05;102476.06;5030670;28;20483;-47
2023/06/03 05:09:09;;;;;;;2.10;2.00;;;;;;;26.08;46.38;102473.59;5030675;28;20848;-48
2023/06/03 05:11:37;;;;;;;2.60;2.37;;;;;;;25.99;46.69;102474.28;5023790;28;20508;-49
2023/06/03 05:14:05;;;;;;;3.53;3.13;;;;;;;25.99;47.92;102468.81;5018984;28;20432;-48
2023/06/03 05:16:34;;;;;;;2.50;2.40;;;;;;;26.43;44.33;102477.78;5030587;28;20483;-44
2023/06/03 05:19:01;;;;;;;3.00;2.70;;;;;;;26.65;45.93;102476.59;5030737;28;20436;-43
2023/06/03 05:21:29;;;;;;;2.63;2.43;;;;;;;27.10;46.63;102480.75;5031650;28;20443;-46
2023/06/03 05:23:57;;;;;;;3.70;2.90;;;;;;;27.36;42.41;102474.31;5034463;28;20888;-45
2023/06/03 05:26:26;;;;;;;3.30;3.20;;;;;;;27.02;42.92;102475.78;5034661;28;20451;-44
2023/06/03 05:28:54;;;;;;;2.80;2.60;;;;;;;26.30;44.04;102484.50;5025174;28;20490;-44
2023/06/03 05:31:22;;;;;;;2.60;2.40;;;;;;;27.08;40.65;102472.81;4994620;28;20461;-44
2023/06/03 05:33:50;;;;;;;3.00;2.80;;;;;;;27.71;43.24;102481.91;5007136;28;20428;-48
2023/06/03 05:36:17;;;;;;;4.00;2.57;;;;;;;27.64;42.68;102471.19;5034431;28;20510;-44
2023/06/03 05:38:45;;;;;;;2.67;2.57;;;;;;;27.45;36.34;102470.81;5034631;28;20239;-46
2023/06/03 05:41:13;;;;;;;2.53;2.43;;;;;;;27.97;39.35;102480.88;5019934;28;20229;-50
2023/06/03 05:43:42;;;;;;;4.13;2.70;;;;;;;27.95;40.07;102477.56;5015346;28;20559;-47
2023/06/03 05:46:09;;;;;;;2.27;2.17;;;;;;;28.35;36.61;102468.59;5015118;28;20486;-50
2023/06/03 05:48:37;;;;;;;2.87;2.77;;;;;;;28.31;37.75;102468.34;5015230;28;20439;-51
2023/06/03 05:51:05;;;;;;;2.60;2.50;;;;;;;28.52;37.17;102477.41;5014189;28;20790;-47
2023/06/03 05:53:33;;;;;;;4.03;2.67;;;;;;;27.59;35.39;102470.34;5014961;28;20667;-50
2023/06/03 05:56:01;;;;;;;2.37;2.27;;;;;;;27.35;39.79;102483.63;5015265;28;20428;-49
2023/06/03 05:58:29;;;;;;;2.43;2.23;;;;;;;27.77;39.78;102476.16;5015191;28;20205;-50
2023/06/03 06:00:58;;;;;;;2.10;2.00;;;;;;;27.58;34.31;102474.16;5014524;28;20468;-46
2023/06/03 06:03:25;;;;;;;2.20;2.10;;;;;;;26.75;35.72;102473.94;5013531;28;20275;-46
2023/06/03 06:05:53;;;;;;;2.40;2.30;;;;;;;26.47;40.01;102481.63;5014999;28;20440;-48
2023/06/03 06:08:21;;;;;;;2.77;2.30;;;;;;;25.84;37.27;102486.72;5014940;28;20490;-44
2023/06/03 06:10:49;;;;;;;2.73;2.57;;;;;;;25.42;38.39;102484.81;5014503;28;20464;-48
2023/06/03 06:13:17;;;;;;;2.70;2.50;;;;;;;25.51;40.87;102491.50;5014553;28;20237;-51
2023/06/03 06:15:59;;;;;;;3.07;2.77;;;;;;;25.72;39.04;102479.75;5014830;28;20198;-45
2023/06/03 06:18:29;;;;;;;2.80;2.70;;;;;;;25.89;37.87;102474.22;5014455;28;20864;-48
2023/06/03 06:20:57;;;;;;;2.70;2.60;;;;;;;25.83;38.44;102473.34;5013228;28;20502;-47
2023/06/03 06:23:25;;;;;;;2.40;2.23;;;;;;;25.64;39.52;102475.56;5014369;28;20504;-49
2023/06/03 06:25:54;;;;;;;2.60;2.33;;;;;;;25.18;40.55;102481.47;5014511;28;20210;-44
2023/06/03 06:28:26;;;;;;;3.00;2.80;;;;;;;25.35;39.69;102476.81;5026055;28;20431;-46
2023/06/03 06:30:55;;;;;;;3.47;2.37;;;;;;;25.07;40.28;102474.22;5033762;28;20278;-49
2023/06/03 06:33:24;;;;;;;2.90;2.70;;;;;;;25.06;40.36;102478.06;5032590;28;20432;-44
2023/06/03 06:35:52;;;;;;;2.77;2.57;;;;;;;25.67;38.58;102469.59;5034045;28;20442;-44
2023/06/03 06:38:20;;;;;;;2.80;2.60;;;;;;;25.55;39.05;102468.91;5034100;28;20435;-44
2023/06/03 06:40:51;;;;;;;2.80;2.50;;;;;;;25.40;39.82;102484.22;5033541;28;20464;-45
2023/06/03 06:43:21;;;;;;;2.40;2.30;;;;;;;25.44;37.79;102467.09;5033338;28;20468;-44
2023/06/03 06:45:49;;;;;;;2.87;2.67;;;;;;;25.40;37.79;102474.13;5033858;28;20475;-47
2023/06/03 06:48:18;;;;;;;2.40;2.30;;;;;;;25.64;39.34;102480.19;5033757;28;20486;-46
2023/06/03 06:50:49;;;;;;;2.27;2.17;;;;;;;26.20;37.78;102470.72;5033462;28;20221;-48
2023/06/03 06:53:19;;;;;;;2.00;1.90;;;;;;;26.39;36.39;102464.63;5033657;28;20427;-46
2023/06/03 06:55:52;;;;;;;2.37;2.27;;;;;;;26.37;35.17;102466.78;5033742;28;20493;-47
2023/06/03 06:58:20;;;;;;;2.23;2.13;;;;;;;26.73;35.12;102465.13;5033700;28;20436;-48
2023/06/03 07:00:49;;;;;;;2.20;2.10;;;;;;;27.11;36.21;102468.72;5032920;28;20224;-44
2023/06/03 07:03:19;;;;;;;2.37;2.13;;;;;;;27.15;33.02;102459.69;5033380;28;20443;-47
2023/06/03 07:05:52;;;;;;;2.90;2.80;;;;;;;27.18;31.62;102461.09;5033899;28;20201;-44
2023/06/03 07:08:21;;;;;;;2.60;2.50;;;;;;;27.69;32.26;102464.88;5033439;28;20424;-45
2023/06/03 07:10:49;;;;;;;2.43;2.27;;;;;;;27.89;30.64;102463.03;5033094;28;20216;-45
2023/06/03 07:13:17;;;;;;;3.00;2.80;;;;;;;27.83;29.97;102468.78;5033267;28;20208;-48
2023/06/03 07:15:45;;;;;;;2.67;2.57;;;;;;;27.76;29.64;102466.28;5032983;28;20197;-46
2023/06/03 07:18:13;;;;;;;2.20;2.10;;;;;;;27.79;29.09;102471.22;5033399;28;20255;-47
2023/06/03 07:20:42;;;;;;;2.70;2.50;;;;;;;27.15;31.02;102470.63;5032799;28;20331;-46
2023/06/03 07:23:14;;;;;;;2.50;2.30;;;;;;;27.13;29.80;102466.53;5032989;28;20204;-46
2023/06/03 07:25:43;;;;;;;2.53;2.33;;;;;;;27.00;30.23;102467.81;5033063;28;20316;-48
2023/06/03 07:28:12;;;;;;;2.77;2.57;;;;;;;26.78;30.79;102473.41;5028688;28;20456;-46
2023/06/03 07:30:41;;;;;;;3.30;2.40;;;;;;;26.29;31.88;102475.47;5031754;28;20231;-47
2023/06/03 07:33:11;;;;;;;2.50;2.40;;;;;;;26.44;30.01;102480.25;5032679;28;20201;-48
2023/06/03 07:35:38;;;;;;;2.70;2.60;;;;;;;26.55;30.33;102471.06;5033009;28;20501;-51
2023/06/03 07:38:07;;;;;;;3.03;2.80;;;;;;;26.69;28.98;102468.69;5032998;28;20502;-46
2023/06/03 07:40:43;;;;;;;2.13;2.03;;;;;;;26.64;29.08;102471.38;5032453;28;20459;-45
2023/06/03 07:43:12;;;;;;;2.43;2.23;;;;;;;26.62;30.84;102470.81;5032489;28;20192;-43
2023/06/03 07:45:40;;;;;;;3.10;2.90;;;;;;;26.39;29.84;102472.81;5031843;28;20598;-44
2023/06/03 07:48:15;;;;;;;2.40;2.30;;;;;;;26.42;30.02;102479.69;5032784;28;20579;-45
2023/06/03 07:50:43;;;;;;;2.70;2.50;;;;;;;26.43;28.24;102473.13;5032184;28;20473;-45
2023/06/03 07:53:14;;;;;;;2.80;2.60;;;;;;;26.18;30.18;102465.53;5032475;28;20475;-46
2023/06/03 07:55:45;;;;;;;2.90;2.70;;;;;;;26.10;28.90;102467.88;5032480;28;20921;-46
2023/06/03 07:58:13;;;;;;;3.10;2.90;;;;;;;25.95;28.81;102478.66;5032275;28;20506;-46
2023/06/03 08:00:44;;;;;;;3.50;3.20;;;;;;;25.32;29.86;102480.06;5032214;28;20506;-45
2023/06/03 08:03:15;;;;;;;2.80;2.70;;;;;;;24.95;31.28;102485.25;5032452;28;20861;-48
2023/06/03 08:05:43;;;;;;;2.60;2.40;;;;;;;24.44;32.01;102475.41;5032438;28;20790;-46
2023/06/03 08:08:12;;;;;;;4.07;2.70;;;;;;;23.87;33.16;102479.22;5032303;28;20538;-46
2023/06/03 08:10:41;;;;;;;3.00;2.80;;;;;;;22.96;34.23;102478.09;5031799;28;20529;-43
2023/06/03 08:13:10;;;;;;;2.77;2.67;;;;;;;22.42;35.14;102475.63;5032009;28;20432;-44
2023/06/03 08:15:39;;;;;;;2.80;2.70;;;;;;;21.74;35.95;102492.25;5032275;28;20921;-49
2023/06/03 08:18:07;;;;;;;2.83;2.63;;;;;;;21.33;35.97;102492.09;5032017;28;20965;-45
2023/06/03 08:20:37;;;;;;;2.87;2.77;;;;;;;20.92;37.14;102498.09;5031788;28;20543;-43
2023/06/03 08:23:05;;;;;;;2.93;2.73;;;;;;;20.89;37.73;102493.13;5031943;28;20501;-44
2023/06/03 08:25:32;;;;;;;4.30;2.80;;;;;;;21.22;36.34;102496.38;5032271;28;20890;-49
2023/06/03 08:28:00;;;;;;;3.93;2.73;;;;;;;21.16;36.67;102496.44;5027644;28;20451;-45
2023/06/03 08:30:29;;;;;;;8.60;2.87;;;;;;;20.88;37.84;102489.56;5031659;28;20463;-50
2023/06/03 08:32:57;;;;;;;2.77;2.63;;;;;;;21.27;36.41;102493.81;5031817;28;20467;-44
2023/06/03 08:35:25;;;;;;;4.73;3.33;;;;;;;21.31;36.56;102495.03;5031952;28;20428;-43
2023/06/03 08:37:53;;;;;;;2.90;2.80;;;;;;;21.75;36.46;102487.63;5027273;28;20511;-46
2023/06/03 08:40:25;;;;;;;3.50;3.20;;;;;;;21.81;35.48;102484.00;5009710;28;20484;-44
2023/06/03 08:43:03;;;;;;;2.93;2.80;;;;;;;21.34;37.15;102488.31;5000189;28;20433;-44
2023/06/03 08:45:41;;;;;;;2.67;2.57;;;;;;;21.50;35.71;102477.69;5011733;28;20466;-49
2023/06/03 08:48:20;;;;;;;3.23;2.90;;;;;;;21.50;35.23;102485.03;5012148;28;20452;-48
2023/06/03 08:50:50;;;;;;;2.50;2.40;;;;;;;21.70;35.31;102479.34;5008647;28;20550;-48
2023/06/03 08:53:18;;;;;;;2.60;2.50;;;;;;;21.53;35.09;102482.66;5011467;28;20437;-47
2023/06/03 08:55:51;;;;;;;2.97;2.83;;;;;;;21.54;35.60;102480.78;5011255;28;20925;-47
2023/06/03 08:58:23;;;;;;;2.70;2.60;;;;;;;21.62;33.82;102477.78;5011671;28;20910;-44
2023/06/03 09:00:56;;;;;;;2.50;2.40;;;;;;;21.57;33.60;102480.31;5011194;28;20460;-45
2023/06/03 09:03:25;;;;;;;3.43;3.20;;;;;;;21.28;34.91;102478.38;5011589;28;21014;-47
2023/06/03 09:05:54;;;;;;;3.50;2.47;;;;;;;21.37;33.41;102464.28;5011962;28;20468;-49
2023/06/03 09:08:22;;;;;;;2.80;2.60;;;;;;;21.31;31.51;102464.34;4999727;28;20487;-43
2023/06/03 09:10:51;;;;;;;3.73;2.47;;;;;;;21.27;33.67;102460.41;5010287;28;20499;-45
2023/06/03 09:13:21;;;;;;;3.57;3.27;;;;;;;20.85;34.30;102470.22;5011539;28;20432;-46
2023/06/03 09:15:51;;;;;;;3.00;2.90;;;;;;;20.77;33.99;102459.66;5011464;28;20459;-44
2023/06/03 09:18:20;;;;;;;2.57;2.47;;;;;;;20.92;36.26;102469.13;5011741;28;20455;-46
2023/06/03 09:20:48;;;;;;;4.90;3.30;;;;;;;21.17;34.25;102473.69;5011084;28;21210;-46
2023/06/03 09:23:16;;;;;;;2.77;2.67;;;;;;;20.85;34.19;102464.78;5011406;28;20519;-45
2023/06/03 09:25:44;;;;;;;5.67;3.00;;;;;;;20.94;33.34;102466.16;5011116;28;20503;-43
2023/06/03 09:28:12;;;;;;;3.20;3.00;;;;;;;20.68;33.86;102466.41;5015741;28;20464;-47
2023/06/03 09:30:42;;;;;;;3.00;2.90;;;;;;;21.00;34.11;102459.84;5020057;28;20456;-50
2023/06/03 09:33:10;;;;;;;2.90;2.80;;;;;;;21.04;34.15;102469.19;4996120;28;20520;-49
2023/06/03 09:35:40;;;;;;;2.80;2.70;;;;;;;21.51;33.50;102465.78;5011208;28;21073;-45
2023/06/03 09:38:08;;;;;;;4.00;3.60;;;;;;;21.77;33.70;102459.19;5011498;28;20460;-45
2023/06/03 09:40:36;;;;;;;3.50;3.20;;;;;;;21.96;33.60;102455.41;5011086;28;20464;-46
2023/06/03 09:43:11;;;;;;;3.00;2.90;;;;;;;21.59;34.11;102459.22;5011279;28;20510;-49
2023/06/03 09:45:39;;;;;;;3.50;3.10;;;;;;;21.65;32.63;102450.16;5011449;28;20500;-45
2023/06/03 09:48:06;;;;;;;3.30;3.10;;;;;;;22.00;32.49;102450.34;5011269;28;21156;-46
2023/06/03 09:50:49;;;;;;;3.30;3.10;;;;;;;21.87;32.15;102450.47;5010671;28;20530;-48
2023/06/03 09:53:20;;;;;;;3.73;3.20;;;;;;;21.53;34.59;102449.28;5009460;28;20490;-47
2023/06/03 09:55:48;;;;;;;3.10;2.90;;;;;;;21.81;32.63;102440.53;5011261;28;20841;-46
2023/06/03 09:58:16;;;;;;;2.90;2.67;;;;;;;22.25;32.20;102442.03;5009272;28;20449;-45
2023/06/03 10:00:48;;;;;;;3.67;3.47;;;;;;;22.20;32.92;102456.31;5009502;28;20522;-46
2023/06/03 10:03:18;;;;;;;3.20;3.00;;;;;;;22.26;33.27;102447.22;5010715;28;20431;-45
2023/06/03 10:05:46;;;;;;;3.50;3.30;;;;;;;21.87;33.18;102447.75;5011259;28;20475;-48
2023/06/03 10:08:27;;;;;;;3.50;3.17;;;;;;;21.97;33.26;102453.50;5013300;28;20807;-45
2023/06/03 10:10:56;;;;;;;3.20;3.10;;;;;;;21.53;32.32;102438.41;5008544;28;20460;-47
2023/06/03 10:13:25;;;;;;;3.90;3.70;;;;;;;21.54;32.10;102437.34;5014408;28;20934;-43
2023/06/03 10:15:53;;;;;;;3.10;2.90;;;;;;;21.72;33.44;102441.91;5014330;28;20433;-50
2023/06/03 10:18:35;;;;;;;3.10;3.00;;;;;;;21.99;32.57;102448.66;5015050;28;20421;-50
2023/06/03 10:21:07;;;;;;;3.07;2.87;;;;;;;22.17;31.91;102439.63;5013617;28;20494;-48
2023/06/03 10:23:38;;;;;;;2.77;2.67;;;;;;;21.95;33.75;102442.06;5014095;28;20424;-49
2023/06/03 10:26:07;;;;;;;2.77;2.67;;;;;;;22.40;33.52;102437.78;5014087;28;20491;-48
2023/06/03 10:28:36;;;;;;;3.07;2.87;;;;;;;22.12;32.37;102436.78;5023308;28;21480;-48
2023/06/03 10:31:05;;;;;;;3.57;3.37;;;;;;;21.83;34.00;102439.25;5016381;28;20461;-45
2023/06/03 10:33:34;;;;;;;3.00;2.80;;;;;;;22.31;33.63;102430.22;5014072;28;20433;-46
2023/06/03 10:36:03;;;;;;;3.37;3.17;;;;;;;21.89;34.34;102440.25;5014011;28;20436;-47
2023/06/03 10:38:33;;;;;;;2.97;2.80;;;;;;;22.08;32.31;102430.16;5013761;28;20955;-44
2023/06/03 10:41:02;;;;;;;3.07;2.77;;;;;;;21.82;34.82;102428.63;5013567;28;20992;-44
2023/06/03 10:43:32;;;;;;;3.23;3.03;;;;;;;21.99;33.79;102429.66;5011782;28;20984;-47
2023/06/03 10:46:01;;;;;;;2.97;2.77;;;;;;;21.44;33.47;102429.72;5013918;28;20810;-45
2023/06/03 10:48:31;;;;;;;2.50;2.40;;;;;;;21.66;35.02;102432.81;5013939;28;20440;-47
2023/06/03 10:51:08;;;;;;;2.63;2.50;;;;;;;22.12;33.05;102428.63;5012148;28;20510;-46
2023/06/03 10:53:45;;;;;;;2.47;2.37;;;;;;;21.92;32.36;102426.22;5013841;28;20792;-49
2023/06/03 10:56:27;;;;;;;2.70;2.60;;;;;;;21.83;33.44;102416.72;5013929;28;20428;-51
2023/06/03 10:59:01;;;;;;;3.03;2.83;;;;;;;21.77;33.49;102423.06;5013622;28;20810;-46
2023/06/03 11:01:56;;;;;;;3.00;2.80;;;;;;;22.02;33.00;102410.19;5013357;28;20441;-44
2023/06/03 11:04:24;;;;;;;4.03;2.90;;;;;;;22.14;32.81;102411.03;5006632;28;20443;-49
2023/06/03 11:06:52;;;;;;;3.13;2.93;;;;;;;22.27;33.86;102413.56;5012874;28;20526;-46
2023/06/03 11:09:38;;;;;;;5.90;3.07;;;;;;;22.32;33.69;102416.38;5011845;28;20954;-48
2023/06/03 11:12:12;;;;;;;3.60;3.40;;;;;;;22.48;33.24;102407.56;5000647;28;20786;-45
2023/06/03 11:14:54;;;;;;;3.20;3.00;;;;;;;22.71;32.19;102409.47;5012971;28;20432;-46
2023/06/03 11:17:31;;;;;;;2.90;2.80;;;;;;;22.92;32.44;102411.59;5013163;28;20492;-50
2023/06/03 11:19:59;;;;;;;3.43;2.90;;;;;;;23.29;32.07;102409.41;5011029;28;20571;-44
2023/06/03 11:22:44;;;;;;;2.90;2.70;;;;;;;23.76;32.00;102406.53;5011884;28;20448;-49
2023/06/03 11:25:29;;;;;;;3.37;3.07;;;;;;;24.02;31.21;102405.91;5012966;28;21047;-46
2023/06/03 11:28:35;;;;;;;3.30;3.07;;;;;;;23.95;30.76;102397.94;5016654;28;20480;-48
2023/06/03 11:31:06;;;;;;;3.50;3.30;;;;;;;23.45;32.88;102405.94;5010964;28;20456;-44
2023/06/03 11:33:35;;;;;;;2.80;2.70;;;;;;;23.28;32.21;102401.47;5012126;28;20933;-44
2023/06/03 11:36:54;;;;;;;4.43;3.30;;;;;;;23.66;31.12;102396.25;5012510;28;20441;-49